Terminal Aerodrome Forecast
Issued by NWS

Home | Current Version | Previous Version | Text Only | Print | Product List | Glossary On
Versions: 1 2 3 4 5 6 7 8 9 10 11 12 13 14 15 16 17 18 19 20 21 22 23 24 25 26 27 28 29 30 31 32 33 34 35 36 37
000
FTPA31 PHFO 251800 AAA
TAFLIH
TAF AMD
PHLI 251858Z 2519/2618 20012G18KT P6SM SCT025 BKN070
      TEMPO 2519/2521 BKN025
     FM252100 20015G21KT P6SM VCSH SCT025 BKN050
     FM260200 20015KT P6SM VCSH SCT015 BKN025
      TEMPO 2602/2606 3SM SHRA BR BKN015
     FM260600 22007KT P6SM VCSH SCT015 BKN025
     FM261500 26005KT P6SM VCSH SCT015 BKN035=

USA.gov is the U.S. government's official web portal to all federal, state and local government web resources and services.